Historique des mesures à Cassis (13260), France
Quotidien Résumé Avril 26, 2017 Unités:  US    Métrique   Métrique/US
« Précédent (Jour)
Suivant (Jour) »
Quotidien Hebdomadaire Mensuel Annuel Période au choix
  Maximum: Minimum: Moyenne:
Température: 32 °F 55.2 °F 58.1 °F
Point de rosée: 32 °F 43.5 °F 50.9 °F
Humidité: Humidity % 65 % 73 %
Vitesse du vent: WindSpeedKMH mph 0.0 mph 6.8 mph
Rafales: WindSpeedGustKMH mph - -
Vent:- - South
Pression: 0 in 29.6 in -
Précipitations: 142.24 in    
Historical Graphs
 
 
Mesures pour : Avril 26, 2017
Heure Temperature Point de rosée Pression Vent Vitesse du vent Rafales Humidité Pluie (par heure) Conditions
32 °F 32 °F 0 in Calm     Humidity % 0 in SoftwareType W/m2
00:10 60.6 °F 50.5 °F 29.7 in SE 5.0 mph 7.9 mph 69 % 0 in open2300-1.11 W/m2
01:11 60.4 °F 51.8 °F 29.7 in SE 3.2 mph 5.0 mph 73 % 0 in open2300-1.11 W/m2
02:11 60.3 °F 53.1 °F 29.7 in SSE 3.2 mph 4.3 mph 77 % 0 in open2300-1.11 W/m2
03:10 59.4 °F 53.2 °F 29.6 in Calm   3.2 mph 80 % 38.1 in open2300-1.11 W/m2
04:10 59 °F 53.4 °F 29.6 in NNW 10.1 mph 10.1 mph 82 % 25.4 in open2300-1.11 W/m2
05:10 59.2 °F 54.7 °F 29.6 in East 1.8 mph 1.8 mph 85 % 12.7 in open2300-1.11 W/m2
06:10 59.2 °F 54.7 °F 29.6 in Calm   3.5 mph 85 % 50.8 in open2300-1.11 W/m2
07:11 57.9 °F 53.8 °F 29.6 in NNE 1.4 mph 5.0 mph 86 % 0 in open2300-1.11 W/m2
08:11 57.6 °F 52.3 °F 29.6 in NW 5.5 mph 6.1 mph 83 % 0 in open2300-1.11 W/m2
09:10 57.6 °F 52.7 °F 29.6 in NW 8.2 mph 8.2 mph 84 % 12.7 in open2300-1.11 W/m2
10:10 58.6 °F 53.2 °F 29.6 in WNW 16.3 mph 16.3 mph 82 % 0 in open2300-1.11 W/m2
11:10 60.4 °F 53.6 °F 29.6 in NW 20.1 mph 23.3 mph 78 % 0 in open2300-1.11 W/m2
12:10 62.6 °F 54.1 °F 29.7 in Calm   1.4 mph 74 % 0 in open2300-1.11 W/m2
13:10 62.6 °F 52.3 °F 29.7 in North 13.7 mph 13.7 mph 69 % 0 in open2300-1.11 W/m2
14:11 62.2 °F 52.3 °F 29.6 in NNE 7.9 mph 19.1 mph 70 % 0 in open2300-1.11 W/m2
15:10 60.6 °F 52 °F 29.7 in North 8.2 mph 8.2 mph 73 % 0 in open2300-1.11 W/m2
16:11 59.9 °F 51.3 °F 29.6 in WNW 14.0 mph 15.4 mph 73 % 0 in open2300-1.11 W/m2
17:10 58.8 °F 50.9 °F 29.7 in North 10.5 mph 10.5 mph 75 % 0 in open2300-1.11 W/m2
18:11 59.4 °F 51.8 °F 29.7 in NW 4.3 mph 7.9 mph 76 % 0 in open2300-1.11 W/m2
19:10 59.4 °F 51.1 °F 29.7 in NNW 5.8 mph 8.2 mph 74 % 0 in open2300-1.11 W/m2
20:10 58.3 °F 51.1 °F 29.7 in SW 2.1 mph 18.0 mph 77 % 0 in open2300-1.11 W/m2
21:10 57.2 °F 47.8 °F 29.7 in North 8.7 mph 14.8 mph 71 % 0 in open2300-1.11 W/m2
22:10 55.9 °F 46.2 °F 29.7 in North 11.1 mph 27.0 mph 70 % 0 in open2300-1.11 W/m2
23:10 55.2 °F 43.5 °F 29.7 in WNW 10.1 mph 11.1 mph 65 % 0 in open2300-1.11 W/m2
Observations météo à CASSIS
WU-History script by Weather Underground - 1 mb